createdAt,value
2023-05-18T00:00:37.992Z,2.10
2023-05-18T00:03:07.110Z,1.77
2023-05-18T00:05:35.350Z,2.53
2023-05-18T00:08:03.475Z,2.17
2023-05-18T00:10:31.701Z,2.30
2023-05-18T00:12:59.829Z,2.73
2023-05-18T00:15:29.546Z,2.13
2023-05-18T00:17:58.568Z,2.40
2023-05-18T00:20:27.542Z,2.37
2023-05-18T00:22:55.756Z,2.80
2023-05-18T00:25:24.108Z,3.00
2023-05-18T00:27:52.252Z,3.03
2023-05-18T00:30:20.666Z,2.63
2023-05-18T00:32:50.184Z,2.90
2023-05-18T00:35:18.290Z,2.67
2023-05-18T00:37:46.509Z,3.20
2023-05-18T00:40:14.850Z,3.00
2023-05-18T00:42:42.896Z,3.30
2023-05-18T00:45:11.952Z,2.90
2023-05-18T00:47:40.108Z,3.00
2023-05-18T00:50:12.536Z,2.87
2023-05-18T00:52:41.588Z,3.30
2023-05-18T00:55:12.697Z,2.90
2023-05-18T00:57:42.094Z,2.80
2023-05-18T01:00:13.977Z,3.27
2023-05-18T01:02:45.506Z,3.43
2023-05-18T01:05:15.185Z,2.90
2023-05-18T01:07:43.502Z,2.90
2023-05-18T01:10:16.293Z,2.77
2023-05-18T01:12:51.766Z,2.47
2023-05-18T01:15:24.380Z,2.37
2023-05-18T01:18:10.233Z,2.30
2023-05-18T01:20:47.760Z,2.10
2023-05-18T01:23:54.870Z,2.83
2023-05-18T01:26:31.527Z,2.80
2023-05-18T01:29:03.604Z,2.47
2023-05-18T01:31:32.333Z,2.87
2023-05-18T01:34:00.586Z,2.70
2023-05-18T01:36:28.905Z,2.63
2023-05-18T01:39:01.441Z,3.23
2023-05-18T01:41:33.268Z,3.07
2023-05-18T01:44:07.057Z,2.80
2023-05-18T01:46:44.330Z,3.60
2023-05-18T01:49:21.656Z,3.17
2023-05-18T01:51:51.754Z,3.33
2023-05-18T01:54:23.018Z,3.30
2023-05-18T01:56:54.818Z,3.40
2023-05-18T01:59:25.328Z,3.53
2023-05-18T02:01:59.268Z,2.90
2023-05-18T02:04:28.521Z,3.13
2023-05-18T02:06:57.097Z,3.27
2023-05-18T02:09:25.441Z,2.40
2023-05-18T02:11:54.882Z,2.70
2023-05-18T02:14:23.075Z,2.50
2023-05-18T02:16:54.245Z,3.03
2023-05-18T02:19:25.362Z,2.93
2023-05-18T02:21:54.961Z,3.00
2023-05-18T02:24:23.314Z,3.40
2023-05-18T02:26:51.545Z,2.67
2023-05-18T02:29:22.752Z,3.30
2023-05-18T02:31:51.149Z,2.70
2023-05-18T02:34:19.699Z,3.63
2023-05-18T02:36:48.737Z,3.80
2023-05-18T02:39:17.246Z,4.17
2023-05-18T02:41:45.377Z,3.53
2023-05-18T02:44:13.685Z,3.47
2023-05-18T02:46:43.129Z,3.47
2023-05-18T02:49:11.853Z,3.60
2023-05-18T02:51:40.184Z,3.47
2023-05-18T02:54:08.344Z,3.30
2023-05-18T02:56:43.450Z,3.40
2023-05-18T02:59:33.043Z,3.33
2023-05-18T03:02:02.645Z,3.50
2023-05-18T03:04:31.725Z,3.80
2023-05-18T03:07:02.703Z,3.37
2023-05-18T03:09:30.999Z,3.60
2023-05-18T03:11:59.275Z,3.63
2023-05-18T03:14:29.995Z,3.53
2023-05-18T03:17:00.510Z,3.50
2023-05-18T03:19:30.028Z,3.47
2023-05-18T03:21:58.840Z,4.30
2023-05-18T03:24:30.119Z,3.40
2023-05-18T03:27:00.944Z,3.33
2023-05-18T03:29:31.301Z,3.77
2023-05-18T03:32:00.802Z,3.23
2023-05-18T03:34:30.330Z,3.40
2023-05-18T03:36:58.582Z,3.73
2023-05-18T03:39:26.922Z,3.47
2023-05-18T03:41:55.169Z,3.20
2023-05-18T03:44:24.023Z,4.03
2023-05-18T03:46:52.392Z,4.00
2023-05-18T03:49:20.538Z,3.83
2023-05-18T03:51:50.061Z,3.83
2023-05-18T03:54:18.180Z,3.80
2023-05-18T03:56:47.017Z,4.03
2023-05-18T03:59:15.252Z,3.67
2023-05-18T04:01:44.506Z,3.67
2023-05-18T04:04:17.906Z,3.70
2023-05-18T04:06:46.933Z,3.50
2023-05-18T04:09:17.305Z,3.97
2023-05-18T04:11:46.492Z,4.47
2023-05-18T04:14:18.082Z,4.37
2023-05-18T04:16:46.707Z,3.67
2023-05-18T04:19:15.912Z,4.00
2023-05-18T04:21:44.103Z,4.17
2023-05-18T04:24:14.455Z,3.67
2023-05-18T04:26:43.949Z,4.07
2023-05-18T04:29:13.610Z,3.83
2023-05-18T04:31:44.722Z,4.40
2023-05-18T04:34:14.285Z,4.00
2023-05-18T04:36:43.857Z,4.10
2023-05-18T04:39:13.171Z,3.47
2023-05-18T04:41:42.176Z,4.00
2023-05-18T04:44:14.135Z,3.87
2023-05-18T04:46:42.665Z,3.70
2023-05-18T04:49:11.669Z,3.07
2023-05-18T04:51:42.016Z,3.50
2023-05-18T04:54:10.369Z,3.50
2023-05-18T04:56:38.638Z,3.70
2023-05-18T04:59:09.339Z,3.53
2023-05-18T05:01:38.806Z,3.57
2023-05-18T05:04:06.946Z,3.50
2023-05-18T05:06:35.127Z,3.20
2023-05-18T05:09:04.606Z,3.70
2023-05-18T05:11:32.774Z,2.87
2023-05-18T05:14:02.307Z,3.40
2023-05-18T05:16:30.643Z,3.80
2023-05-18T05:19:00.249Z,3.40
2023-05-18T05:21:28.925Z,3.43
2023-05-18T05:23:57.357Z,3.43
2023-05-18T05:26:27.427Z,2.63
2023-05-18T05:28:55.525Z,3.10
2023-05-18T05:31:23.686Z,3.33
2023-05-18T05:33:52.761Z,3.20
2023-05-18T05:36:22.664Z,3.17
2023-05-18T05:38:50.931Z,3.40
2023-05-18T05:41:19.063Z,3.43
2023-05-18T05:43:47.187Z,2.80
2023-05-18T05:46:15.765Z,2.70
2023-05-18T05:48:44.372Z,2.83
2023-05-18T05:51:12.550Z,3.03
2023-05-18T05:53:43.520Z,3.37
2023-05-18T05:56:11.662Z,3.37
2023-05-18T05:58:43.045Z,3.03
2023-05-18T06:01:11.662Z,2.53
2023-05-18T06:03:40.356Z,4.17
2023-05-18T06:06:09.020Z,2.43
2023-05-18T06:08:37.345Z,2.70
2023-05-18T06:11:07.781Z,2.90
2023-05-18T06:13:37.552Z,3.07
2023-05-18T06:16:06.734Z,3.07
2023-05-18T06:18:34.965Z,3.00
2023-05-18T06:21:05.860Z,2.70
2023-05-18T06:23:34.478Z,2.60
2023-05-18T06:26:03.044Z,2.57
2023-05-18T06:28:57.683Z,2.70
2023-05-18T06:31:46.051Z,2.70
2023-05-18T06:34:33.055Z,2.70
2023-05-18T06:37:02.229Z,3.10
2023-05-18T06:39:30.433Z,2.63
2023-05-18T06:41:58.802Z,2.40
2023-05-18T06:44:35.198Z,2.57
2023-05-18T06:47:09.180Z,2.53
2023-05-18T06:49:37.680Z,2.90
2023-05-18T06:52:06.766Z,2.80
2023-05-18T06:54:35.281Z,3.20
2023-05-18T06:57:03.707Z,2.77
2023-05-18T06:59:34.630Z,2.57
2023-05-18T07:02:03.962Z,3.20
2023-05-18T07:04:32.932Z,2.70
2023-05-18T07:07:01.533Z,2.13
2023-05-18T07:09:29.780Z,2.67
2023-05-18T07:11:57.866Z,2.83
2023-05-18T07:14:26.052Z,2.63
2023-05-18T07:16:55.676Z,2.73
2023-05-18T07:19:23.965Z,3.33
2023-05-18T07:21:52.738Z,2.47
2023-05-18T07:24:21.024Z,2.80
2023-05-18T07:26:49.413Z,3.00
2023-05-18T07:29:17.834Z,2.60
2023-05-18T07:31:46.611Z,2.90
2023-05-18T07:34:17.161Z,2.80
2023-05-18T07:36:45.604Z,2.63
2023-05-18T07:39:24.344Z,2.50
2023-05-18T07:41:52.679Z,3.13
2023-05-18T07:44:21.037Z,2.87
2023-05-18T07:46:49.178Z,3.37
2023-05-18T07:49:18.860Z,3.00
2023-05-18T07:51:47.228Z,3.03
2023-05-18T07:54:15.369Z,4.50
2023-05-18T07:56:44.273Z,3.70
2023-05-18T07:59:12.683Z,3.93
2023-05-18T08:01:41.489Z,3.33
2023-05-18T08:04:15.060Z,3.43
2023-05-18T08:06:44.796Z,2.90
2023-05-18T08:09:17.052Z,3.23
2023-05-18T08:14:42.472Z,3.33
2023-05-18T08:17:11.137Z,3.17
2023-05-18T08:19:41.834Z,3.37
2023-05-18T08:22:11.787Z,3.77
2023-05-18T08:24:39.948Z,2.70
2023-05-18T08:27:09.885Z,3.23
2023-05-18T08:29:38.097Z,3.23
2023-05-18T08:32:08.085Z,3.30
2023-05-18T08:34:36.770Z,3.77
2023-05-18T08:37:05.330Z,3.43
2023-05-18T08:39:35.068Z,3.23
2023-05-18T08:42:08.712Z,3.77
2023-05-18T08:44:46.531Z,3.10
2023-05-18T08:47:17.594Z,3.40
2023-05-18T08:49:50.478Z,2.83
2023-05-18T08:52:23.162Z,3.70
2023-05-18T08:54:54.056Z,3.00
2023-05-18T08:57:24.489Z,3.10
2023-05-18T08:59:55.420Z,3.03
2023-05-18T09:02:25.176Z,3.23
2023-05-18T09:04:54.642Z,3.10
2023-05-18T09:07:24.433Z,3.13
2023-05-18T09:09:55.686Z,3.00
2023-05-18T09:12:24.690Z,2.80
2023-05-18T09:14:53.985Z,3.20
2023-05-18T09:17:24.691Z,3.33
2023-05-18T09:19:53.573Z,2.80
2023-05-18T09:22:21.889Z,2.67
2023-05-18T09:24:51.347Z,2.53
2023-05-18T09:27:21.636Z,2.70
2023-05-18T09:29:58.092Z,2.60
2023-05-18T09:32:27.590Z,2.60
2023-05-18T09:34:56.093Z,2.13
2023-05-18T09:37:24.487Z,2.70
2023-05-18T09:40:01.359Z,2.90
2023-05-18T09:42:37.808Z,2.97
2023-05-18T09:45:16.905Z,3.10
2023-05-18T09:47:45.132Z,3.13
2023-05-18T09:50:21.005Z,3.00
2023-05-18T09:52:50.866Z,2.60
2023-05-18T09:55:48.238Z,2.93
2023-05-18T09:58:42.206Z,2.50
2023-05-18T10:01:10.374Z,3.10
2023-05-18T10:03:39.528Z,2.40
2023-05-18T10:06:13.248Z,3.00
2023-05-18T10:08:45.527Z,2.80
2023-05-18T10:11:38.535Z,2.30
2023-05-18T10:14:14.495Z,2.90
2023-05-18T10:16:43.282Z,2.80
2023-05-18T10:19:14.689Z,2.90
2023-05-18T10:21:43.372Z,2.97
2023-05-18T10:24:14.502Z,2.47
2023-05-18T10:26:44.945Z,2.77
2023-05-18T10:29:14.863Z,2.53
2023-05-18T10:31:43.609Z,2.80
2023-05-18T10:34:12.372Z,2.50
2023-05-18T10:36:41.143Z,2.40
2023-05-18T10:39:11.263Z,2.40
2023-05-18T10:41:40.957Z,2.80
2023-05-18T10:44:09.182Z,2.80
2023-05-18T10:46:39.313Z,2.70
2023-05-18T10:49:14.717Z,2.23
2023-05-18T10:51:44.660Z,2.33
2023-05-18T10:54:14.617Z,2.40
2023-05-18T10:56:45.192Z,2.87
2023-05-18T10:59:18.433Z,2.60
2023-05-18T11:01:50.687Z,2.50
2023-05-18T11:04:26.941Z,2.27
2023-05-18T11:06:58.936Z,2.60
2023-05-18T11:09:29.760Z,3.00
2023-05-18T11:12:02.467Z,2.60
2023-05-18T11:14:32.840Z,2.33
2023-05-18T11:17:23.368Z,2.43
2023-05-18T11:20:17.173Z,2.53
2023-05-18T11:22:51.397Z,2.20
2023-05-18T11:25:40.918Z,2.70
2023-05-18T11:28:14.714Z,2.83
2023-05-18T11:30:49.944Z,2.43
2023-05-18T11:33:26.080Z,2.57
2023-05-18T11:36:04.396Z,2.27
2023-05-18T11:38:54.802Z,2.13
2023-05-18T11:41:32.403Z,2.27
2023-05-18T11:44:20.850Z,2.07
2023-05-18T11:47:03.544Z,2.50
2023-05-18T11:49:37.559Z,2.00
2023-05-18T11:52:08.900Z,2.03
2023-05-18T11:54:46.885Z,2.53
2023-05-18T11:57:18.681Z,1.97
2023-05-18T11:59:48.892Z,2.37
2023-05-18T12:02:23.132Z,2.47
2023-05-18T12:04:56.405Z,2.10
2023-05-18T12:07:26.149Z,2.67
2023-05-18T12:09:58.349Z,3.43
2023-05-18T12:12:27.291Z,2.47
2023-05-18T12:14:59.021Z,2.30
2023-05-18T12:17:40.300Z,2.37
2023-05-18T12:20:13.818Z,2.20
2023-05-18T12:22:43.065Z,2.10
2023-05-18T12:25:12.722Z,1.93
2023-05-18T12:27:41.945Z,2.30
2023-05-18T12:30:13.822Z,2.30
2023-05-18T12:32:47.089Z,1.97
2023-05-18T12:35:16.741Z,2.20
2023-05-18T12:37:46.289Z,3.00
2023-05-18T12:40:16.917Z,2.30
2023-05-18T12:42:53.795Z,2.30
2023-05-18T12:45:26.945Z,2.10
2023-05-18T12:47:56.310Z,2.10
2023-05-18T12:50:27.318Z,2.20
2023-05-18T12:52:57.446Z,2.60
2023-05-18T12:55:26.652Z,2.03
2023-05-18T12:58:07.894Z,1.97
2023-05-18T13:00:37.823Z,2.23
2023-05-18T13:03:14.492Z,2.10
2023-05-18T13:05:46.453Z,2.43
2023-05-18T13:08:18.030Z,2.30
2023-05-18T13:10:49.312Z,2.23
2023-05-18T13:13:23.764Z,1.70
2023-05-18T13:15:52.556Z,1.90
2023-05-18T13:18:20.794Z,2.40
2023-05-18T13:20:53.590Z,1.73
2023-05-18T13:23:24.000Z,2.00
2023-05-18T13:25:52.365Z,1.90
2023-05-18T13:28:22.549Z,1.73
2023-05-18T13:30:51.511Z,2.13
2023-05-18T13:33:19.718Z,2.20
2023-05-18T13:35:50.985Z,2.27
2023-05-18T13:38:19.162Z,2.10
2023-05-18T13:40:47.416Z,2.27
2023-05-18T13:43:15.639Z,2.03
2023-05-18T13:45:44.424Z,2.13
2023-05-18T13:48:12.819Z,2.07
2023-05-18T13:50:41.138Z,2.60
2023-05-18T13:53:10.750Z,2.53
2023-05-18T13:55:39.152Z,2.23
2023-05-18T13:58:07.573Z,1.90
2023-05-18T14:00:36.493Z,2.43
2023-05-18T14:03:05.210Z,2.10
2023-05-18T14:05:33.685Z,2.30
2023-05-18T14:08:01.900Z,2.10
2023-05-18T14:10:31.961Z,2.07
2023-05-18T14:13:00.251Z,1.93
2023-05-18T14:15:28.344Z,1.90
2023-05-18T14:17:56.640Z,2.10
2023-05-18T14:20:24.873Z,2.07
2023-05-18T14:22:53.152Z,2.10
2023-05-18T14:25:21.234Z,2.30
2023-05-18T14:27:50.959Z,2.00
2023-05-18T14:30:19.107Z,1.93
2023-05-18T14:32:47.366Z,1.90
2023-05-18T14:35:15.706Z,1.73
2023-05-18T14:37:43.804Z,2.23
2023-05-18T14:40:12.785Z,1.70
2023-05-18T14:42:40.972Z,2.03
2023-05-18T14:45:11.816Z,2.27
2023-05-18T14:47:39.960Z,2.30
2023-05-18T14:50:09.487Z,1.80
2023-05-18T14:52:37.649Z,1.90
2023-05-18T14:55:06.657Z,1.67
2023-05-18T14:57:37.857Z,2.07
2023-05-18T15:00:07.346Z,1.67
2023-05-18T15:02:37.068Z,1.90
2023-05-18T15:05:06.325Z,1.80
2023-05-18T15:07:34.667Z,2.00
2023-05-18T15:10:02.845Z,1.63
2023-05-18T15:12:31.187Z,1.80
2023-05-18T15:14:59.315Z,2.00
2023-05-18T15:17:27.575Z,1.80
2023-05-18T15:19:57.236Z,1.70
2023-05-18T15:22:25.439Z,1.60
2023-05-18T15:24:53.804Z,1.73
2023-05-18T15:27:22.071Z,1.77
2023-05-18T15:29:50.254Z,2.30
2023-05-18T15:32:20.885Z,2.90
2023-05-18T15:34:49.014Z,2.00
2023-05-18T15:37:18.526Z,2.00
2023-05-18T15:39:46.653Z,1.80
2023-05-18T15:42:15.020Z,1.70
2023-05-18T15:44:43.218Z,2.00
2023-05-18T15:47:11.505Z,2.47
2023-05-18T15:49:39.667Z,1.87
2023-05-18T15:52:08.960Z,1.87
2023-05-18T15:54:38.414Z,1.53
2023-05-18T15:57:07.437Z,2.00
2023-05-18T15:59:35.638Z,2.43
2023-05-18T16:02:03.745Z,1.93
2023-05-18T16:04:31.866Z,1.23
2023-05-18T16:06:59.996Z,1.90
2023-05-18T16:09:28.478Z,1.70
2023-05-18T16:11:58.177Z,1.87
2023-05-18T16:14:31.311Z,1.70
2023-05-18T16:16:59.456Z,2.20
2023-05-18T16:19:27.797Z,1.90
2023-05-18T16:21:56.798Z,1.70
2023-05-18T16:24:24.878Z,1.90
2023-05-18T16:27:01.303Z,1.70
2023-05-18T16:29:29.571Z,1.50
2023-05-18T16:31:57.751Z,1.70
2023-05-18T16:34:25.915Z,1.80
2023-05-18T16:36:54.080Z,1.83
2023-05-18T16:39:22.193Z,1.60
2023-05-18T16:41:50.361Z,1.83
2023-05-18T16:44:19.822Z,1.60
2023-05-18T16:46:48.112Z,2.03
2023-05-18T16:49:16.322Z,1.80
2023-05-18T16:51:44.569Z,1.83
2023-05-18T16:54:17.542Z,1.93
2023-05-18T16:56:46.704Z,2.17
2023-05-18T16:59:15.393Z,1.90
2023-05-18T17:01:44.881Z,1.77
2023-05-18T17:04:13.613Z,1.90
2023-05-18T17:06:42.056Z,2.43
2023-05-18T17:09:10.182Z,2.47
2023-05-18T17:11:38.313Z,2.47
2023-05-18T17:14:30.350Z,2.00
2023-05-18T17:16:59.814Z,1.70
2023-05-18T17:19:28.141Z,2.33
2023-05-18T17:21:57.128Z,2.30
2023-05-18T17:24:25.275Z,2.30
2023-05-18T17:26:53.648Z,2.23
2023-05-18T17:29:21.973Z,2.17
2023-05-18T17:31:50.467Z,1.90
2023-05-18T17:34:20.172Z,1.90
2023-05-18T17:36:49.742Z,1.73
2023-05-18T17:39:17.983Z,1.80
2023-05-18T17:41:46.137Z,1.83
2023-05-18T17:44:16.237Z,1.90
2023-05-18T17:46:46.147Z,1.50
2023-05-18T17:49:15.061Z,1.70
2023-05-18T17:51:44.706Z,2.03
2023-05-18T17:54:13.368Z,1.77
2023-05-18T17:56:41.542Z,1.87
2023-05-18T17:59:09.753Z,1.43
2023-05-18T18:01:38.058Z,2.10
2023-05-18T18:04:07.095Z,2.10
2023-05-18T18:06:35.638Z,2.00
2023-05-18T18:09:05.948Z,1.97
2023-05-18T18:11:34.129Z,1.83
2023-05-18T18:14:03.171Z,2.37
2023-05-18T18:16:31.470Z,1.70
2023-05-18T18:18:59.604Z,1.57
2023-05-18T18:21:27.688Z,1.63
2023-05-18T18:23:55.976Z,2.67
2023-05-18T18:26:32.777Z,2.20
2023-05-18T18:29:00.822Z,1.70
2023-05-18T18:31:53.676Z,1.70
2023-05-18T18:34:21.827Z,2.30
2023-05-18T18:36:49.940Z,1.80
2023-05-18T18:39:19.150Z,2.07
2023-05-18T18:41:48.664Z,2.00
2023-05-18T18:44:19.057Z,2.17
2023-05-18T18:46:47.794Z,2.00
2023-05-18T18:49:17.078Z,1.80
2023-05-18T18:52:13.029Z,2.20
2023-05-18T18:54:42.019Z,2.10
2023-05-18T18:57:12.077Z,1.97
2023-05-18T18:59:40.426Z,1.77
2023-05-18T19:02:09.331Z,1.97
2023-05-18T19:04:37.509Z,2.10
2023-05-18T19:07:06.066Z,1.70
2023-05-18T19:09:36.091Z,1.67
2023-05-18T19:12:04.681Z,2.07
2023-05-18T19:14:34.129Z,1.67
2023-05-18T19:17:02.558Z,2.10
2023-05-18T19:19:33.096Z,1.90
2023-05-18T19:22:01.466Z,1.33
2023-05-18T19:24:29.651Z,1.90
2023-05-18T19:26:57.769Z,1.90
2023-05-18T19:29:25.893Z,2.07
2023-05-18T19:31:57.213Z,1.77
2023-05-18T19:34:25.780Z,1.63
2023-05-18T19:36:54.055Z,1.40
2023-05-18T19:39:22.134Z,2.00
2023-05-18T19:41:50.201Z,2.00
2023-05-18T19:44:18.293Z,2.20
2023-05-18T19:46:46.544Z,2.60
2023-05-18T19:49:16.078Z,1.80
2023-05-18T19:51:44.210Z,2.07
2023-05-18T19:54:12.984Z,1.90
2023-05-18T19:56:42.097Z,1.63
2023-05-18T19:59:10.139Z,2.10
2023-05-18T20:01:38.287Z,2.50
2023-05-18T20:04:06.678Z,1.83
2023-05-18T20:06:36.791Z,2.40
2023-05-18T20:09:05.153Z,1.90
2023-05-18T20:11:33.414Z,1.90
2023-05-18T20:14:02.165Z,2.63
2023-05-18T20:16:33.735Z,2.00
2023-05-18T20:19:03.353Z,1.70
2023-05-18T20:21:31.811Z,1.90
2023-05-18T20:24:01.430Z,2.10
2023-05-18T20:26:31.962Z,2.17
2023-05-18T20:29:00.374Z,2.07
2023-05-18T20:31:28.663Z,1.83
2023-05-18T20:33:58.051Z,2.13
2023-05-18T20:36:26.678Z,1.93
2023-05-18T20:38:55.080Z,2.03
2023-05-18T20:41:25.862Z,1.80
2023-05-18T20:43:54.225Z,2.07
2023-05-18T20:46:24.974Z,2.57
2023-05-18T20:48:55.262Z,1.63
2023-05-18T20:51:24.692Z,2.27
2023-05-18T20:53:53.176Z,2.30
2023-05-18T20:56:21.913Z,2.23
2023-05-18T20:58:51.376Z,2.00
2023-05-18T21:01:21.028Z,2.37
2023-05-18T21:03:49.497Z,2.00
2023-05-18T21:06:17.867Z,2.37
2023-05-18T21:08:46.233Z,2.27
2023-05-18T21:11:14.351Z,2.13
2023-05-18T21:13:42.404Z,2.33
2023-05-18T21:16:11.943Z,2.40
2023-05-18T21:18:40.138Z,1.83
2023-05-18T21:21:08.348Z,2.37
2023-05-18T21:23:36.530Z,1.87
2023-05-18T21:26:04.871Z,1.90
2023-05-18T21:28:33.111Z,2.13
2023-05-18T21:31:01.262Z,2.03
2023-05-18T21:33:30.741Z,2.13
2023-05-18T21:35:59.588Z,1.50
2023-05-18T21:38:27.634Z,1.97
2023-05-18T21:40:56.938Z,1.77
2023-05-18T21:43:25.460Z,1.70
2023-05-18T21:45:53.605Z,1.90
2023-05-18T21:48:21.905Z,2.03
2023-05-18T21:50:54.067Z,1.70
2023-05-18T21:53:27.566Z,1.93
2023-05-18T21:55:55.897Z,2.27
2023-05-18T21:58:24.570Z,1.90
2023-05-18T22:01:17.124Z,2.10
2023-05-18T22:03:45.420Z,1.90
2023-05-18T22:07:04.632Z,1.70
2023-05-18T22:09:32.719Z,1.93
2023-05-18T22:12:01.139Z,1.97
2023-05-18T22:14:30.940Z,2.00
2023-05-18T22:16:59.178Z,1.87
2023-05-18T22:19:27.390Z,2.30
2023-05-18T22:21:55.657Z,2.40
2023-05-18T22:24:25.098Z,2.17
2023-05-18T22:26:53.250Z,2.50
2023-05-18T22:29:21.424Z,2.10
2023-05-18T22:31:49.568Z,2.07
2023-05-18T22:34:17.636Z,2.40
2023-05-18T22:36:45.742Z,2.20
2023-05-18T22:39:20.902Z,2.00
2023-05-18T22:41:50.362Z,2.20
2023-05-18T22:44:44.021Z,2.13
2023-05-18T22:47:13.403Z,2.00
2023-05-18T22:49:41.503Z,2.13
2023-05-18T22:52:16.431Z,1.90
2023-05-18T22:54:44.641Z,2.40
2023-05-18T22:57:19.140Z,2.70
2023-05-18T22:59:47.633Z,2.70
2023-05-18T23:02:18.149Z,2.13
2023-05-18T23:04:46.465Z,1.90
2023-05-18T23:07:14.672Z,1.93
2023-05-18T23:09:43.052Z,2.17
2023-05-18T23:12:12.716Z,2.60
2023-05-18T23:14:41.236Z,1.97
2023-05-18T23:17:09.529Z,2.43
2023-05-18T23:19:38.527Z,2.00
2023-05-18T23:22:07.066Z,2.00
2023-05-18T23:24:35.125Z,2.07
2023-05-18T23:27:03.207Z,2.63
2023-05-18T23:29:32.603Z,2.23
2023-05-18T23:32:00.729Z,1.97
2023-05-18T23:34:29.821Z,1.90
2023-05-18T23:37:02.780Z,2.53
2023-05-18T23:39:31.457Z,2.07
2023-05-18T23:42:01.667Z,2.10
2023-05-18T23:44:32.168Z,2.00
2023-05-18T23:47:01.251Z,2.73
2023-05-18T23:49:30.227Z,1.93
2023-05-18T23:52:03.204Z,2.00
2023-05-18T23:54:31.846Z,2.13
2023-05-18T23:57:00.722Z,2.07
2023-05-18T23:59:29.565Z,1.83
